»·PEaware :: N86PD KSNA-KBUR

N86PD :: KSNA-KBUR

FLIGHT INFORMATION

Flight Status: Arrived
Operator: Privately registered:
United States
More flights under this callsign
Pilot: Noam B. (29261)
Aircraft: BEECH AIRCRAFT BARON
(BE58)
More flights by this aircraft type
Origin: KSNA John Wayne-Orange Co
United States
Destination: KBUR Bob Hope-Burbank
United States
More flights between these airports :: More routes between these airports
Route: +SLI V23 POPPR SMO SILEX
File this flight plan on PilotEdge
Remarks: IMC weather
Altitude:
(Current/Filed)
4,000ft
Speed:
(Current/Filed)
190kts
Departed: 22-May-20 09:51 PM
Arrived: 22-May-20 10:39 PM
Distance/Time
Traveled:
40nm/0:48
Distance/Time
To Go:
Arrived

Flight Plot

Page will automatically refresh every two minutes.


Map Options




Map Legend


Flown Route
Filed Route
Departure Airport
Arrival Airport
Navaid (VOR, NDB)
Fix

Horizontal Profiles

Position Reports

Time Latitude Longitude Heading Altitude Ground
Speed
22-May-20 21:34 33.674546 -117.872137 118 59ft 0kts
22-May-20 21:35 33.674546 -117.872137 118 59ft 0kts
22-May-20 21:36 33.674546 -117.872137 118 59ft 0kts
22-May-20 21:37 33.674546 -117.872137 118 59ft 0kts
22-May-20 21:38 33.674546 -117.872137 118 59ft 0kts
22-May-20 21:39 33.674546 -117.872137 118 59ft 0kts
22-May-20 21:40 33.674546 -117.872137 118 59ft 0kts
22-May-20 21:41 33.674546 -117.872137 118 59ft 0kts
22-May-20 21:42 33.674546 -117.872137 118 59ft 0kts
22-May-20 21:43 33.674546 -117.872137 118 59ft 0kts
22-May-20 21:44 33.674546 -117.872137 118 59ft 0kts
22-May-20 21:45 33.674459 -117.871484 115 59ft 3kts
22-May-20 21:46 33.676467 -117.869836 27 59ft 14kts
22-May-20 21:47 33.680180 -117.867677 26 59ft 12kts
22-May-20 21:48 33.681188 -117.866406 111 59ft 0kts
22-May-20 21:49 33.680945 -117.865868 132 59ft 6kts
22-May-20 21:50 33.668405 -117.873382 206 236ft 118kts
22-May-20 21:51 33.645827 -117.902203 243 1850ft 126kts
22-May-20 21:52 33.629014 -117.940409 241 2930ft 131kts
22-May-20 21:53 33.613546 -117.980415 264 3827ft 135kts
22-May-20 21:54 33.633554 -118.022188 327 4055ft 164kts
22-May-20 21:55 33.670844 -118.056381 315 4056ft 181kts
22-May-20 21:56 33.700022 -118.086972 317 3944ft 188kts
22-May-20 21:57 33.735646 -118.132890 314 3944ft 187kts
22-May-20 21:58 33.769454 -118.180510 304 3925ft 187kts
22-May-20 21:59 33.798767 -118.232070 314 3986ft 184kts
22-May-20 22:00 33.842130 -118.264652 319 3991ft 186kts
22-May-20 22:01 33.873450 -118.313590 312 4135ft 180kts
22-May-20 22:02 33.903289 -118.351920 322 3873ft 193kts
22-May-20 22:03 33.945284 -118.391005 319 3990ft 179kts
22-May-20 22:04 33.982692 -118.431372 323 4064ft 185kts
22-May-20 22:05 34.013988 -118.459225 319 4015ft 187kts
22-May-20 22:06 34.054655 -118.497394 341 3968ft 186kts
22-May-20 22:07 34.099032 -118.528633 326 4006ft 186kts
22-May-20 22:08 34.142574 -118.563967 327 3875ft 185kts
22-May-20 22:09 34.179168 -118.594121 327 3980ft 171kts
22-May-20 22:10 34.222019 -118.612357 26 3685ft 168kts
22-May-20 22:11 34.222946 -118.570105 121 2797ft 117kts
22-May-20 22:12 34.204860 -118.531742 119 3113ft 142kts
22-May-20 22:13 34.197910 -118.485399 90 2610ft 143kts
22-May-20 22:14 34.198622 -118.444098 97 2007ft 109kts
22-May-20 22:15 34.198484 -118.406385 93 1467ft 128kts
22-May-20 22:16 34.195984 -118.362987 106 1430ft 135kts
22-May-20 22:17 34.168722 -118.336101 197 2883ft 136kts
22-May-20 22:18 34.140659 -118.366142 225 4042ft 135kts
22-May-20 22:19 34.111532 -118.395148 228 4940ft 139kts
22-May-20 22:20 34.081969 -118.428808 240 5198ft 152kts
22-May-20 22:21 34.067398 -118.482443 251 4922ft 174kts
22-May-20 22:22 34.058038 -118.540267 266 4866ft 168kts
22-May-20 22:23 34.060005 -118.594820 272 5089ft 162kts
22-May-20 22:24 34.065177 -118.649980 276 4989ft 174kts
22-May-20 22:25 34.074519 -118.706686 279 4942ft 174kts
22-May-20 22:26 34.085973 -118.761550 301 4922ft 172kts
22-May-20 22:27 34.126535 -118.772993 13 4378ft 162kts
22-May-20 22:28 34.164037 -118.750960 70 3900ft 140kts
22-May-20 22:29 34.175026 -118.708756 70 4155ft 134kts
22-May-20 22:30 34.191396 -118.663380 67 3965ft 165kts
22-May-20 22:31 34.199365 -118.611062 80 3876ft 154kts
22-May-20 22:32 34.199826 -118.560757 90 3915ft 140kts
22-May-20 22:33 34.199677 -118.512636 89 3370ft 137kts
22-May-20 22:34 34.199207 -118.470692 90 2418ft 117kts
22-May-20 22:35 34.198517 -118.432749 86 1858ft 114kts
22-May-20 22:36 34.198183 -118.394309 96 1214ft 113kts
22-May-20 22:37 34.197840 -118.360899 90 780ft 59kts
22-May-20 22:38 34.199009 -118.358454 344 780ft 4kts

Navigation Log

Ident Type
Flight plan parsing failed, navigation log unavailable